Time;durP1;ratioP1;P1;durP2;ratioP2;P2;SDS_P1;SDS_P2;PMS_P1;PMS_P2;Temp;Humidity;BMP_temperature;BMP_pressure;BME280_temperature;BME280_humidity;BME280_pressure;Samples;Min_cycle;Max_cycle;Signal;HPM_P1;HPM_P2
2023/06/20 00:00:33;;;;;;;4.72;2.63;;;;;;;;;;5016005;28;20104;-71
2023/06/20 00:02:58;;;;;;;7.30;3.05;;;;;;;;;;5013273;28;20462;-71
2023/06/20 00:05:24;;;;;;;4.80;2.63;;;;;;;;;;5015831;28;20052;-71
2023/06/20 00:07:49;;;;;;;7.68;2.53;;;;;;;;;;5015544;28;20041;-71
2023/06/20 00:10:15;;;;;;;4.47;2.67;;;;;;;;;;5015745;28;20037;-71
2023/06/20 00:12:40;;;;;;;9.05;2.65;;;;;;;;;;5015318;28;20115;-71
2023/06/20 00:15:06;;;;;;;6.80;2.72;;;;;;;;;;5007357;28;20160;-70
2023/06/20 00:17:31;;;;;;;4.93;2.65;;;;;;;;;;5014095;28;20116;-71
2023/06/20 00:19:57;;;;;;;5.25;2.70;;;;;;;;;;5015635;28;20403;-71
2023/06/20 00:22:22;;;;;;;7.57;2.67;;;;;;;;;;5015461;28;20496;-71
2023/06/20 00:24:47;;;;;;;8.35;2.80;;;;;;;;;;5016096;28;20480;-71
2023/06/20 00:27:13;;;;;;;6.55;2.78;;;;;;;;;;5013614;28;20474;-71
2023/06/20 00:29:39;;;;;;;5.45;2.60;;;;;;;;;;5011980;28;20422;-71
2023/06/20 00:32:05;;;;;;;6.97;2.80;;;;;;;;;;5014158;28;20408;-71
2023/06/20 00:34:30;;;;;;;8.52;2.95;;;;;;;;;;5015426;28;20037;-71
2023/06/20 00:36:55;;;;;;;6.18;2.60;;;;;;;;;;5014092;28;20046;-71
2023/06/20 00:39:21;;;;;;;5.30;2.92;;;;;;;;;;5010249;28;20033;-71
2023/06/20 00:41:46;;;;;;;11.35;3.05;;;;;;;;;;5014886;28;20521;-71
2023/06/20 00:44:12;;;;;;;6.88;2.70;;;;;;;;;;5003162;28;20040;-71
2023/06/20 00:46:38;;;;;;;6.07;2.50;;;;;;;;;;5007880;28;20041;-71
2023/06/20 00:49:05;;;;;;;7.32;2.70;;;;;;;;;;5004048;28;20037;-71
2023/06/20 00:51:30;;;;;;;7.10;2.88;;;;;;;;;;5011997;28;20049;-71
2023/06/20 00:53:56;;;;;;;7.63;2.42;;;;;;;;;;5013175;28;20033;-71
2023/06/20 00:56:24;;;;;;;9.80;3.08;;;;;;;;;;5014356;28;20378;-71
2023/06/20 00:58:49;;;;;;;4.68;2.90;;;;;;;;;;5013626;28;20148;-71
2023/06/20 01:01:16;;;;;;;5.32;2.85;;;;;;;;;;5014714;28;20492;-71
2023/06/20 01:03:43;;;;;;;5.78;2.80;;;;;;;;;;5010901;28;20069;-70
2023/06/20 01:06:22;;;;;;;6.40;2.58;;;;;;;;;;5014628;28;20049;-71
2023/06/20 01:08:58;;;;;;;7.68;2.67;;;;;;;;;;5013369;28;20104;-71
2023/06/20 01:11:51;;;;;;;5.38;2.78;;;;;;;;;;5013070;28;20037;-71
2023/06/20 01:14:25;;;;;;;5.53;2.70;;;;;;;;;;5013206;28;20037;-71
2023/06/20 01:16:58;;;;;;;8.10;2.90;;;;;;;;;;5013426;28;20042;-70
2023/06/20 01:19:49;;;;;;;9.73;2.70;;;;;;;;;;5014766;28;20038;-70
2023/06/20 01:22:36;;;;;;;7.00;3.13;;;;;;;;;;5013178;28;20038;-71
2023/06/20 01:25:05;;;;;;;5.47;2.58;;;;;;;;;;5014367;28;20037;-71
2023/06/20 01:27:37;;;;;;;6.22;2.88;;;;;;;;;;5012816;28;21545;-71
2023/06/20 01:30:08;;;;;;;5.43;2.90;;;;;;;;;;5004505;28;20040;-71
2023/06/20 01:32:37;;;;;;;13.10;3.35;;;;;;;;;;5013116;28;20096;-71
2023/06/20 01:35:11;;;;;;;6.03;3.17;;;;;;;;;;5007317;28;20091;-71
2023/06/20 01:37:37;;;;;;;;;;;;;;;;;;5013403;28;20046;-71
2023/06/20 01:40:05;;;;;;;4.43;2.67;;;;;;;;;;5012845;28;20258;-71
2023/06/20 01:42:31;;;;;;;6.30;2.63;;;;;;;;;;5012416;28;20046;-71
2023/06/20 01:44:59;;;;;;;8.52;3.20;;;;;;;;;;5004975;28;20109;-71
2023/06/20 01:47:25;;;;;;;7.38;2.85;;;;;;;;;;5012748;28;20045;-71
2023/06/20 01:49:52;;;;;;;11.70;3.47;;;;;;;;;;5012084;28;20037;-70
2023/06/20 01:52:18;;;;;;;8.02;2.95;;;;;;;;;;5013772;28;20038;-71
2023/06/20 01:54:47;;;;;;;6.20;3.25;;;;;;;;;;5012791;28;20045;-71
2023/06/20 01:57:13;;;;;;;5.63;2.90;;;;;;;;;;5011439;28;20482;-71
2023/06/20 01:59:40;;;;;;;6.18;3.15;;;;;;;;;;5012034;28;20045;-71
2023/06/20 02:02:06;;;;;;;6.30;3.13;;;;;;;;;;5012796;28;20092;-71
2023/06/20 02:04:33;;;;;;;5.80;2.78;;;;;;;;;;5011652;28;20105;-71
2023/06/20 02:07:00;;;;;;;5.30;2.90;;;;;;;;;;5012263;28;20077;-71
2023/06/20 02:09:25;;;;;;;4.18;2.53;;;;;;;;;;5011867;28;20041;-71
2023/06/20 02:11:51;;;;;;;4.82;2.70;;;;;;;;;;5012245;28;20117;-71
2023/06/20 02:14:16;;;;;;;7.82;2.65;;;;;;;;;;5012571;28;20034;-71
2023/06/20 02:16:42;;;;;;;7.38;3.08;;;;;;;;;;5012723;28;20404;-71
2023/06/20 02:19:08;;;;;;;5.85;2.60;;;;;;;;;;4999959;28;20046;-71
2023/06/20 02:21:37;;;;;;;5.15;2.55;;;;;;;;;;5012534;28;20079;-71
2023/06/20 02:24:05;;;;;;;7.57;2.50;;;;;;;;;;5013134;28;20486;-70
2023/06/20 02:26:34;;;;;;;5.57;3.03;;;;;;;;;;5011960;28;20092;-71
2023/06/20 02:29:02;;;;;;;5.78;2.53;;;;;;;;;;5012590;28;20030;-71
2023/06/20 02:31:31;;;;;;;7.88;2.72;;;;;;;;;;5012340;28;20397;-71
2023/06/20 02:33:59;;;;;;;6.05;3.03;;;;;;;;;;5012132;28;20087;-70
2023/06/20 02:36:27;;;;;;;6.97;2.65;;;;;;;;;;5011075;28;20049;-71
2023/06/20 02:38:53;;;;;;;10.45;3.03;;;;;;;;;;5011766;28;20038;-71
2023/06/20 02:41:20;;;;;;;8.57;2.78;;;;;;;;;;5007275;28;20042;-71
2023/06/20 02:43:46;;;;;;;4.35;2.58;;;;;;;;;;5012008;28;20032;-71
2023/06/20 02:46:30;;;;;;;5.97;2.65;;;;;;;;;;5012955;28;20037;-71
2023/06/20 02:48:58;;;;;;;;;;;;;;;;;;5011691;28;20065;-71
2023/06/20 02:51:26;;;;;;;5.68;2.72;;;;;;;;;;5013106;28;19917;-71
2023/06/20 02:54:16;;;;;;;9.20;2.95;;;;;;;;;;5011624;28;20490;-71
2023/06/20 02:56:43;;;;;;;4.95;2.60;;;;;;;;;;5011713;28;20052;-71
2023/06/20 02:59:10;;;;;;;6.30;2.88;;;;;;;;;;5011449;28;20053;-70
2023/06/20 03:01:36;;;;;;;14.00;3.17;;;;;;;;;;5014138;28;20485;-70
2023/06/20 03:04:03;;;;;;;11.43;3.17;;;;;;;;;;5016418;28;20046;-70
2023/06/20 03:06:28;;;;;;;5.47;2.83;;;;;;;;;;5010609;28;20128;-70
2023/06/20 03:08:56;;;;;;;7.15;2.88;;;;;;;;;;5015508;28;20116;-70
2023/06/20 03:11:21;;;;;;;12.32;3.30;;;;;;;;;;5015267;28;20486;-71
2023/06/20 03:13:47;;;;;;;8.35;2.97;;;;;;;;;;5014885;28;20129;-71
2023/06/20 03:16:12;;;;;;;7.95;3.45;;;;;;;;;;5015583;28;20041;-71
2023/06/20 03:18:38;;;;;;;8.10;3.15;;;;;;;;;;5016672;28;20034;-71
2023/06/20 03:21:04;;;;;;;7.30;2.72;;;;;;;;;;5007368;28;20470;-70
2023/06/20 03:23:29;;;;;;;10.50;2.78;;;;;;;;;;5016658;28;20029;-71
2023/06/20 03:25:55;;;;;;;7.38;3.10;;;;;;;;;;5016618;28;20079;-71
2023/06/20 03:28:22;;;;;;;8.93;2.90;;;;;;;;;;5015940;28;20393;-71
2023/06/20 03:30:47;;;;;;;15.13;3.40;;;;;;;;;;5015340;28;20443;-71
2023/06/20 03:33:13;;;;;;;10.45;3.00;;;;;;;;;;5015197;28;20041;-71
2023/06/20 03:35:39;;;;;;;7.95;3.33;;;;;;;;;;5016430;28;20393;-71
2023/06/20 03:38:04;;;;;;;8.98;3.60;;;;;;;;;;5016641;28;20038;-71
2023/06/20 03:40:29;;;;;;;8.63;3.05;;;;;;;;;;5016310;28;20125;-71
2023/06/20 03:42:55;;;;;;;13.32;3.15;;;;;;;;;;5016363;28;20084;-71
2023/06/20 03:45:21;;;;;;;10.13;3.83;;;;;;;;;;5014353;28;20076;-71
2023/06/20 03:47:46;;;;;;;10.95;3.25;;;;;;;;;;5016106;28;20053;-71
2023/06/20 03:50:11;;;;;;;8.55;3.33;;;;;;;;;;5015032;28;20122;-71
2023/06/20 03:52:37;;;;;;;7.07;3.22;;;;;;;;;;5016087;28;20121;-72
2023/06/20 03:55:02;;;;;;;5.38;3.05;;;;;;;;;;5016194;28;20037;-71
2023/06/20 03:57:28;;;;;;;12.38;3.13;;;;;;;;;;5015273;28;20046;-71
2023/06/20 03:59:53;;;;;;;9.63;2.83;;;;;;;;;;5014158;28;20478;-71
2023/06/20 04:02:19;;;;;;;10.40;3.20;;;;;;;;;;5014634;28;20446;-71
2023/06/20 04:04:49;;;;;;;6.75;3.15;;;;;;;;;;5010720;28;20041;-71
2023/06/20 04:07:18;;;;;;;9.05;3.25;;;;;;;;;;5014778;28;20076;-71
2023/06/20 04:09:46;;;;;;;15.65;3.63;;;;;;;;;;5008660;28;20085;-71
2023/06/20 04:12:12;;;;;;;9.63;3.28;;;;;;;;;;5014210;28;20045;-71
2023/06/20 04:14:37;;;;;;;14.80;3.25;;;;;;;;;;5015302;28;20033;-71
2023/06/20 04:17:03;;;;;;;10.77;3.42;;;;;;;;;;5015693;28;20046;-71
2023/06/20 04:19:29;;;;;;;6.35;3.35;;;;;;;;;;5015311;28;20065;-72
2023/06/20 04:21:54;;;;;;;10.15;3.45;;;;;;;;;;5015629;28;20056;-71
2023/06/20 04:24:19;;;;;;;7.95;2.75;;;;;;;;;;5015733;28;20146;-72
2023/06/20 04:26:44;;;;;;;15.40;4.25;;;;;;;;;;5015758;28;20045;-72
2023/06/20 04:29:10;;;;;;;6.07;3.03;;;;;;;;;;5015532;28;20034;-72
2023/06/20 04:31:35;;;;;;;15.50;3.58;;;;;;;;;;5010458;28;20038;-71
2023/06/20 04:34:00;;;;;;;8.75;3.15;;;;;;;;;;5015133;28;20044;-72
2023/06/20 04:36:26;;;;;;;12.88;3.70;;;;;;;;;;5015873;28;20026;-72
2023/06/20 04:38:52;;;;;;;11.77;3.50;;;;;;;;;;5015303;28;20034;-72
2023/06/20 04:41:18;;;;;;;12.63;3.25;;;;;;;;;;5015477;28;20052;-72
2023/06/20 04:43:44;;;;;;;28.30;3.75;;;;;;;;;;5015052;28;20029;-72
2023/06/20 04:46:12;;;;;;;5.72;2.95;;;;;;;;;;5015299;28;20084;-72
2023/06/20 04:48:38;;;;;;;74.97;5.28;;;;;;;;;;5014601;28;20474;-72
2023/06/20 04:51:07;;;;;;;9.57;3.38;;;;;;;;;;5013350;28;20037;-72
2023/06/20 04:53:33;;;;;;;10.27;3.45;;;;;;;;;;5014893;28;20045;-72
2023/06/20 04:55:59;;;;;;;9.80;3.40;;;;;;;;;;5014801;28;20482;-72
2023/06/20 04:58:27;;;;;;;11.98;3.72;;;;;;;;;;5013341;28;20061;-72
2023/06/20 05:00:53;;;;;;;12.27;3.42;;;;;;;;;;5014104;28;20072;-72
2023/06/20 05:03:19;;;;;;;7.55;2.80;;;;;;;;;;5014499;28;20061;-72
2023/06/20 05:05:45;;;;;;;9.18;3.35;;;;;;;;;;5015039;28;20037;-72
2023/06/20 05:08:10;;;;;;;9.18;3.25;;;;;;;;;;5009405;28;20046;-72
2023/06/20 05:10:35;;;;;;;8.20;3.33;;;;;;;;;;5012126;28;20038;-72
2023/06/20 05:13:01;;;;;;;14.52;3.33;;;;;;;;;;5013137;28;20048;-72
2023/06/20 05:15:26;;;;;;;17.77;3.60;;;;;;;;;;5013513;28;20052;-72
2023/06/20 05:17:52;;;;;;;31.17;3.47;;;;;;;;;;5014426;28;20069;-72
2023/06/20 05:20:18;;;;;;;16.48;3.22;;;;;;;;;;5013248;28;20041;-72
2023/06/20 05:22:43;;;;;;;15.20;3.40;;;;;;;;;;5013983;28;20482;-72
2023/06/20 05:25:09;;;;;;;11.63;3.75;;;;;;;;;;5014808;28;20034;-72
2023/06/20 05:27:34;;;;;;;20.38;4.28;;;;;;;;;;5012810;28;20033;-72
2023/06/20 05:29:59;;;;;;;14.50;3.22;;;;;;;;;;5005368;28;20042;-72
2023/06/20 05:32:25;;;;;;;15.10;3.88;;;;;;;;;;5012836;28;20046;-72
2023/06/20 05:34:50;;;;;;;11.63;3.33;;;;;;;;;;5014469;28;20053;-72
2023/06/20 05:37:16;;;;;;;23.33;3.50;;;;;;;;;;5014179;28;20111;-72
2023/06/20 05:39:41;;;;;;;9.55;3.25;;;;;;;;;;5013172;28;20041;-72
2023/06/20 05:42:07;;;;;;;6.10;3.25;;;;;;;;;;5012513;28;20163;-72
2023/06/20 05:44:32;;;;;;;7.20;3.20;;;;;;;;;;5014303;28;20034;-72
2023/06/20 05:46:57;;;;;;;9.90;3.38;;;;;;;;;;5014091;28;20107;-72
2023/06/20 05:49:22;;;;;;;9.45;3.20;;;;;;;;;;5014587;28;20029;-72
2023/06/20 05:51:48;;;;;;;10.50;3.35;;;;;;;;;;5010911;28;20497;-72
2023/06/20 05:54:14;;;;;;;11.25;3.17;;;;;;;;;;5013675;28;20125;-72
2023/06/20 05:56:39;;;;;;;128.63;6.88;;;;;;;;;;5010985;28;20109;-72
2023/06/20 05:59:05;;;;;;;106.28;4.43;;;;;;;;;;5012090;28;20050;-72
2023/06/20 06:01:30;;;;;;;11.13;3.38;;;;;;;;;;5012165;28;20045;-72
2023/06/20 06:03:56;;;;;;;11.70;3.55;;;;;;;;;;5013595;28;20026;-72
2023/06/20 06:06:21;;;;;;;8.02;3.83;;;;;;;;;;5011243;28;20042;-72
2023/06/20 06:08:46;;;;;;;13.88;3.95;;;;;;;;;;5006901;28;20037;-72
2023/06/20 06:11:12;;;;;;;15.75;3.33;;;;;;;;;;5012560;28;20034;-72
2023/06/20 06:13:39;;;;;;;16.38;3.08;;;;;;;;;;5012670;28;20474;-72
2023/06/20 06:16:04;;;;;;;8.02;3.45;;;;;;;;;;5011847;28;20038;-72
2023/06/20 06:18:30;;;;;;;8.10;3.45;;;;;;;;;;5012282;28;20132;-72
2023/06/20 06:20:56;;;;;;;9.43;2.92;;;;;;;;;;5013704;28;20041;-72
2023/06/20 06:23:21;;;;;;;8.15;3.72;;;;;;;;;;5013792;28;20041;-72
2023/06/20 06:25:46;;;;;;;10.75;3.72;;;;;;;;;;5012641;28;20096;-72
2023/06/20 06:28:12;;;;;;;7.57;3.38;;;;;;;;;;5013454;28;20113;-72
2023/06/20 06:30:37;;;;;;;12.98;3.50;;;;;;;;;;5012409;28;20125;-72
2023/06/20 06:33:03;;;;;;;10.90;3.75;;;;;;;;;;5013407;28;20030;-72
2023/06/20 06:35:30;;;;;;;8.80;3.90;;;;;;;;;;5013243;28;20037;-72
2023/06/20 06:37:56;;;;;;;8.93;3.50;;;;;;;;;;5013584;28;20111;-72
2023/06/20 06:40:21;;;;;;;9.68;3.17;;;;;;;;;;5012152;28;20033;-72
2023/06/20 06:42:47;;;;;;;16.90;3.85;;;;;;;;;;5012727;28;20107;-72
2023/06/20 06:45:12;;;;;;;14.43;3.58;;;;;;;;;;5011156;28;20394;-72
2023/06/20 06:47:38;;;;;;;7.32;3.22;;;;;;;;;;5011889;28;20033;-72
2023/06/20 06:50:03;;;;;;;9.48;2.80;;;;;;;;;;5008084;28;20044;-72
2023/06/20 06:52:30;;;;;;;7.35;3.20;;;;;;;;;;5011223;28;20045;-72
2023/06/20 06:54:55;;;;;;;10.77;3.47;;;;;;;;;;5011793;28;20045;-72
2023/06/20 06:57:21;;;;;;;8.52;2.90;;;;;;;;;;5011615;28;20088;-72
2023/06/20 06:59:46;;;;;;;17.48;3.20;;;;;;;;;;5012726;28;20034;-72
2023/06/20 07:02:13;;;;;;;11.10;3.25;;;;;;;;;;5013156;28;20030;-72
2023/06/20 07:04:39;;;;;;;8.15;3.03;;;;;;;;;;5013246;28;20038;-72
2023/06/20 07:07:05;;;;;;;7.25;3.00;;;;;;;;;;5011219;28;20045;-72
2023/06/20 07:09:30;;;;;;;3.67;2.35;;;;;;;;;;5013085;28;20478;-72
2023/06/20 07:11:55;;;;;;;5.50;2.58;;;;;;;;;;5012928;28;20429;-72
2023/06/20 07:14:21;;;;;;;6.22;2.90;;;;;;;;;;5009271;28;20042;-72
2023/06/20 07:16:46;;;;;;;5.65;2.08;;;;;;;;;;5007384;28;20044;-72
2023/06/20 07:19:11;;;;;;;7.13;2.45;;;;;;;;;;5013175;28;20034;-72
2023/06/20 07:21:37;;;;;;;8.45;2.40;;;;;;;;;;5006097;28;20045;-72
2023/06/20 07:24:03;;;;;;;5.57;2.42;;;;;;;;;;5009257;28;20041;-72
2023/06/20 07:26:28;;;;;;;3.65;2.00;;;;;;;;;;5010845;28;20541;-71
2023/06/20 07:28:53;;;;;;;2.88;1.80;;;;;;;;;;5009962;28;20117;-71
2023/06/20 07:31:19;;;;;;;6.57;2.40;;;;;;;;;;5006405;28;20109;-72
2023/06/20 07:33:45;;;;;;;4.65;1.90;;;;;;;;;;5007694;28;20117;-72
2023/06/20 07:36:11;;;;;;;6.25;2.35;;;;;;;;;;5010212;28;20121;-72
2023/06/20 07:38:36;;;;;;;5.32;1.88;;;;;;;;;;5010384;28;20029;-71
2023/06/20 07:41:01;;;;;;;3.13;2.00;;;;;;;;;;5002076;28;20505;-72
2023/06/20 07:43:27;;;;;;;5.40;1.80;;;;;;;;;;5010407;28;20037;-72
2023/06/20 07:45:52;;;;;;;4.70;1.77;;;;;;;;;;5011292;28;20038;-72
2023/06/20 07:48:18;;;;;;;4.28;1.98;;;;;;;;;;5013206;28;20038;-72
2023/06/20 07:50:43;;;;;;;4.38;1.70;;;;;;;;;;5016362;28;20030;-72
2023/06/20 07:53:08;;;;;;;3.13;1.85;;;;;;;;;;5015468;28;20034;-72
2023/06/20 07:55:34;;;;;;;3.00;1.70;;;;;;;;;;5015294;28;20121;-72
2023/06/20 07:57:59;;;;;;;5.10;1.80;;;;;;;;;;5014060;28;20128;-72
2023/06/20 08:00:25;;;;;;;2.55;1.42;;;;;;;;;;4996954;28;20444;-72
2023/06/20 08:02:51;;;;;;;11.18;2.10;;;;;;;;;;5009068;28;20046;-72
2023/06/20 08:05:18;;;;;;;4.05;1.75;;;;;;;;;;5011415;28;20058;-72
2023/06/20 08:07:43;;;;;;;3.95;1.60;;;;;;;;;;5010386;28;20056;-72
2023/06/20 08:10:10;;;;;;;2.97;1.65;;;;;;;;;;5009335;28;20092;-72
2023/06/20 08:12:36;;;;;;;4.57;1.80;;;;;;;;;;5011577;28;20494;-72
2023/06/20 08:15:02;;;;;;;5.95;1.50;;;;;;;;;;5012283;28;20034;-72
2023/06/20 08:17:27;;;;;;;3.00;1.50;;;;;;;;;;5002085;28;20108;-72
2023/06/20 08:19:52;;;;;;;3.35;1.38;;;;;;;;;;5009973;28;20077;-72
2023/06/20 08:22:18;;;;;;;4.20;1.48;;;;;;;;;;5011537;28;20042;-72
2023/06/20 08:24:43;;;;;;;3.13;1.40;;;;;;;;;;5011867;28;20042;-72
2023/06/20 08:27:08;;;;;;;4.07;1.40;;;;;;;;;;5012145;28;20041;-72
2023/06/20 08:29:34;;;;;;;3.05;1.60;;;;;;;;;;5011382;28;20033;-72
2023/06/20 08:32:00;;;;;;;3.55;1.58;;;;;;;;;;5010671;28;20087;-72
2023/06/20 08:34:25;;;;;;;4.13;1.35;;;;;;;;;;5011341;28;20044;-72
2023/06/20 08:36:53;;;;;;;3.10;1.30;;;;;;;;;;5011811;28;20118;-72
2023/06/20 08:39:18;;;;;;;3.67;1.42;;;;;;;;;;5001292;28;20046;-72
2023/06/20 08:41:44;;;;;;;2.45;1.30;;;;;;;;;;5004186;28;20084;-72
2023/06/20 08:44:09;;;;;;;3.55;1.50;;;;;;;;;;5008894;28;20092;-72
2023/06/20 08:46:35;;;;;;;6.80;1.70;;;;;;;;;;5011447;28;20038;-72
2023/06/20 08:49:00;;;;;;;3.13;1.33;;;;;;;;;;5011093;28;20052;-72
2023/06/20 08:51:28;;;;;;;3.75;1.50;;;;;;;;;;5012068;28;20088;-72
2023/06/20 08:53:54;;;;;;;2.50;1.30;;;;;;;;;;5011233;28;20045;-72
2023/06/20 08:56:19;;;;;;;3.90;1.70;;;;;;;;;;5009628;28;20046;-72
2023/06/20 08:58:45;;;;;;;2.97;1.42;;;;;;;;;;5008855;28;20478;-72
2023/06/20 09:01:10;;;;;;;3.15;1.60;;;;;;;;;;5010811;28;20478;-72
2023/06/20 09:03:36;;;;;;;2.78;1.55;;;;;;;;;;5010322;28;20111;-72
2023/06/20 09:06:02;;;;;;;2.78;1.40;;;;;;;;;;5010530;28;20037;-72
2023/06/20 09:08:36;;;;;;;3.42;1.50;;;;;;;;;;5011351;28;20041;-72
2023/06/20 09:11:06;;;;;;;2.55;1.27;;;;;;;;;;5009888;28;20037;-72
2023/06/20 09:13:32;;;;;;;6.97;1.48;;;;;;;;;;5008929;28;20041;-72
2023/06/20 09:16:10;;;;;;;3.92;2.03;;;;;;;;;;5010258;28;20156;-72
2023/06/20 09:18:40;;;;;;;4.40;1.65;;;;;;;;;;5011146;28;20069;-72
2023/06/20 09:21:05;;;;;;;4.10;1.52;;;;;;;;;;5003650;28;20042;-72
2023/06/20 09:23:32;;;;;;;2.90;1.35;;;;;;;;;;5007197;28;20033;-72
2023/06/20 09:26:13;;;;;;;5.07;1.55;;;;;;;;;;4996950;28;20065;-72
2023/06/20 09:28:39;;;;;;;4.43;1.52;;;;;;;;;;4992505;28;20042;-72
2023/06/20 09:31:04;;;;;;;3.25;1.60;;;;;;;;;;5006431;28;20042;-72
2023/06/20 09:33:30;;;;;;;3.17;1.60;;;;;;;;;;5009840;28;20049;-72
2023/06/20 09:36:14;;;;;;;3.38;1.58;;;;;;;;;;5010072;28;20037;-72
2023/06/20 09:38:52;;;;;;;4.70;1.42;;;;;;;;;;5008599;28;20060;-72
2023/06/20 09:41:17;;;;;;;3.22;1.45;;;;;;;;;;5010615;28;20090;-72
2023/06/20 09:43:44;;;;;;;4.30;1.30;;;;;;;;;;5009132;28;20481;-71
2023/06/20 09:46:09;;;;;;;3.30;1.67;;;;;;;;;;5009777;28;20029;-72
2023/06/20 09:48:36;;;;;;;5.28;1.50;;;;;;;;;;5002699;28;20056;-72
2023/06/20 09:51:02;;;;;;;3.85;1.50;;;;;;;;;;5007647;28;20045;-72
2023/06/20 09:53:33;;;;;;;8.63;1.58;;;;;;;;;;5008677;28;20048;-72
2023/06/20 09:55:59;;;;;;;3.13;1.40;;;;;;;;;;4999849;28;20025;-72
2023/06/20 09:58:25;;;;;;;2.40;1.20;;;;;;;;;;5007881;28;20172;-72
2023/06/20 10:00:51;;;;;;;5.30;1.40;;;;;;;;;;5008920;28;20120;-72
2023/06/20 10:03:16;;;;;;;4.15;1.58;;;;;;;;;;5008818;28;20037;-72
2023/06/20 10:05:45;;;;;;;2.70;1.42;;;;;;;;;;5007371;28;20618;-72
2023/06/20 10:08:10;;;;;;;3.67;1.25;;;;;;;;;;5010018;28;20056;-72
2023/06/20 10:10:35;;;;;;;4.72;1.40;;;;;;;;;;5010471;28;20458;-72
2023/06/20 10:13:01;;;;;;;2.83;1.48;;;;;;;;;;5010074;28;20482;-72
2023/06/20 10:15:26;;;;;;;3.38;1.40;;;;;;;;;;5007846;28;20488;-72
2023/06/20 10:17:52;;;;;;;3.70;1.55;;;;;;;;;;5008507;28;20029;-72
2023/06/20 10:20:23;;;;;;;2.83;1.40;;;;;;;;;;5009908;28;20049;-72
2023/06/20 10:22:49;;;;;;;5.13;1.50;;;;;;;;;;5009636;28;20037;-72
2023/06/20 10:25:16;;;;;;;4.07;1.15;;;;;;;;;;5008988;28;20053;-72
2023/06/20 10:27:43;;;;;;;3.55;1.30;;;;;;;;;;5008555;28;20103;-72
2023/06/20 10:30:11;;;;;;;2.47;1.30;;;;;;;;;;5002320;28;20192;-72
2023/06/20 10:32:57;;;;;;;3.75;1.42;;;;;;;;;;5006866;28;20041;-72
2023/06/20 10:35:24;;;;;;;3.63;1.40;;;;;;;;;;5008487;28;20045;-72
2023/06/20 10:37:49;;;;;;;2.92;1.20;;;;;;;;;;5009292;28;20470;-72
2023/06/20 10:40:31;;;;;;;2.55;1.20;;;;;;;;;;5008629;28;20052;-72
2023/06/20 10:42:56;;;;;;;3.72;1.30;;;;;;;;;;5010184;28;20045;-72
2023/06/20 10:45:27;;;;;;;1.88;1.10;;;;;;;;;;5009090;28;20038;-72
2023/06/20 10:47:53;;;;;;;2.25;0.93;;;;;;;;;;5008526;28;20040;-72
2023/06/20 10:50:19;;;;;;;3.63;1.20;;;;;;;;;;5008404;28;20069;-72
2023/06/20 10:52:44;;;;;;;3.35;1.20;;;;;;;;;;5009180;28;20474;-72
2023/06/20 10:55:14;;;;;;;3.65;1.50;;;;;;;;;;5007905;28;20092;-72
2023/06/20 10:57:46;;;;;;;3.78;1.95;;;;;;;;;;5009148;28;20078;-72
2023/06/20 11:00:18;;;;;;;3.80;1.73;;;;;;;;;;5007663;28;20048;-72
2023/06/20 11:02:49;;;;;;;3.22;1.50;;;;;;;;;;5005374;28;20092;-72
2023/06/20 11:05:14;;;;;;;5.32;1.95;;;;;;;;;;5008958;28;20041;-72
2023/06/20 11:08:09;;;;;;;3.50;1.58;;;;;;;;;;5009720;28;20496;-72
2023/06/20 11:10:36;;;;;;;3.17;1.55;;;;;;;;;;5006339;28;20410;-72
2023/06/20 11:13:05;;;;;;;4.88;2.00;;;;;;;;;;5008614;28;20100;-72
2023/06/20 11:15:39;;;;;;;5.60;1.52;;;;;;;;;;5006570;28;20059;-72
2023/06/20 11:18:06;;;;;;;4.03;1.67;;;;;;;;;;4992610;28;20049;-72
2023/06/20 11:20:36;;;;;;;4.20;1.70;;;;;;;;;;5006756;28;20026;-71
2023/06/20 11:23:04;;;;;;;2.95;1.42;;;;;;;;;;4995805;28;20045;-71
2023/06/20 11:25:31;;;;;;;3.10;1.40;;;;;;;;;;5008261;28;20040;-72
2023/06/20 11:28:11;;;;;;;3.47;1.52;;;;;;;;;;5009710;28;20120;-72
2023/06/20 11:30:38;;;;;;;3.53;1.48;;;;;;;;;;5008949;28;20038;-71
2023/06/20 11:33:14;;;;;;;3.30;1.30;;;;;;;;;;5010575;28;20041;-72
2023/06/20 11:35:42;;;;;;;3.00;1.25;;;;;;;;;;5010643;28;20037;-72
2023/06/20 11:38:16;;;;;;;2.88;1.30;;;;;;;;;;5010857;28;20042;-72
2023/06/20 11:40:43;;;;;;;4.75;1.50;;;;;;;;;;5010466;28;20033;-71
2023/06/20 11:43:33;;;;;;;4.40;1.10;;;;;;;;;;5010873;28;20044;-71
2023/06/20 11:45:59;;;;;;;3.42;1.38;;;;;;;;;;5010598;28;20103;-71
2023/06/20 11:48:25;;;;;;;4.88;1.50;;;;;;;;;;5011030;28;20037;-72
2023/06/20 11:51:03;;;;;;;3.72;1.60;;;;;;;;;;5011978;28;20398;-73
2023/06/20 11:53:34;;;;;;;2.75;1.40;;;;;;;;;;5005741;28;20038;-72
2023/06/20 11:56:06;;;;;;;3.10;1.40;;;;;;;;;;5011486;28;20042;-71
2023/06/20 11:58:45;;;;;;;5.20;1.55;;;;;;;;;;5011726;28;20089;-71
2023/06/20 12:01:15;;;;;;;3.72;1.60;;;;;;;;;;5000466;28;20033;-72
2023/06/20 12:03:42;;;;;;;3.53;1.50;;;;;;;;;;5008466;28;20052;-72
2023/06/20 12:06:31;;;;;;;3.38;1.50;;;;;;;;;;5010687;28;20042;-72
2023/06/20 12:09:11;;;;;;;4.57;1.52;;;;;;;;;;5003507;28;20062;-72
2023/06/20 12:11:52;;;;;;;3.22;1.38;;;;;;;;;;4991294;28;20042;-72
2023/06/20 12:14:18;;;;;;;2.08;1.23;;;;;;;;;;5010310;28;20048;-72
2023/06/20 12:16:43;;;;;;;3.33;1.60;;;;;;;;;;5001803;28;20453;-72
2023/06/20 12:19:08;;;;;;;2.80;1.25;;;;;;;;;;5008160;28;20030;-72
2023/06/20 12:21:38;;;;;;;3.40;1.38;;;;;;;;;;5010853;28;20077;-72
2023/06/20 12:24:04;;;;;;;4.20;1.60;;;;;;;;;;5004118;28;20061;-72
2023/06/20 12:26:29;;;;;;;2.88;1.50;;;;;;;;;;5007992;28;20037;-72
2023/06/20 12:28:56;;;;;;;4.57;1.60;;;;;;;;;;5011555;28;20037;-72
2023/06/20 12:31:22;;;;;;;2.63;1.13;;;;;;;;;;4995044;28;21071;-72
2023/06/20 12:33:47;;;;;;;2.30;1.30;;;;;;;;;;5004635;28;20034;-72
2023/06/20 12:36:12;;;;;;;1.90;1.10;;;;;;;;;;5003624;28;20065;-72
2023/06/20 12:38:38;;;;;;;2.28;1.35;;;;;;;;;;5011650;28;20083;-72
2023/06/20 12:41:03;;;;;;;2.60;1.20;;;;;;;;;;5003523;28;20031;-72
2023/06/20 12:43:29;;;;;;;2.78;1.27;;;;;;;;;;5003275;28;20064;-72
2023/06/20 12:45:57;;;;;;;3.15;1.50;;;;;;;;;;5003796;28;20046;-72
2023/06/20 12:48:23;;;;;;;3.17;1.50;;;;;;;;;;5005092;28;20405;-72
2023/06/20 12:50:48;;;;;;;3.70;1.50;;;;;;;;;;5008309;28;20052;-72
2023/06/20 12:53:13;;;;;;;2.72;1.40;;;;;;;;;;5001494;28;20053;-72
2023/06/20 12:55:39;;;;;;;2.72;1.30;;;;;;;;;;5008532;28;20030;-72
2023/06/20 12:58:04;;;;;;;4.05;1.77;;;;;;;;;;5010730;28;20061;-72
2023/06/20 13:00:30;;;;;;;3.13;1.50;;;;;;;;;;5008343;28;20050;-72
2023/06/20 13:02:55;;;;;;;3.65;1.50;;;;;;;;;;5007840;28;20030;-72
2023/06/20 13:05:20;;;;;;;3.03;1.50;;;;;;;;;;5010754;28;20112;-72
2023/06/20 13:07:47;;;;;;;5.68;1.60;;;;;;;;;;5007540;28;20125;-72
2023/06/20 13:10:12;;;;;;;4.43;1.55;;;;;;;;;;5009659;28;20438;-71
2023/06/20 13:12:39;;;;;;;3.03;1.48;;;;;;;;;;5008546;28;20042;-72
2023/06/20 13:15:05;;;;;;;4.40;1.50;;;;;;;;;;5011005;28;20386;-72
2023/06/20 13:17:36;;;;;;;5.20;1.90;;;;;;;;;;5010577;28;20026;-72
2023/06/20 13:20:05;;;;;;;2.20;1.40;;;;;;;;;;5009772;28;20045;-72
2023/06/20 13:22:30;;;;;;;4.95;1.65;;;;;;;;;;5009901;28;20068;-72
2023/06/20 13:24:56;;;;;;;5.28;1.55;;;;;;;;;;5010639;28;20066;-72
2023/06/20 13:27:21;;;;;;;3.13;1.73;;;;;;;;;;5010841;28;20076;-72
2023/06/20 13:29:47;;;;;;;3.53;1.67;;;;;;;;;;5010938;28;20421;-72
2023/06/20 13:32:12;;;;;;;4.28;1.65;;;;;;;;;;5009801;28;20022;-72
2023/06/20 13:34:37;;;;;;;3.75;1.80;;;;;;;;;;5009142;28;20045;-72
2023/06/20 13:37:03;;;;;;;6.88;2.10;;;;;;;;;;5010007;28;20041;-72
2023/06/20 13:39:30;;;;;;;7.00;2.10;;;;;;;;;;5009128;28;20030;-72
2023/06/20 13:41:56;;;;;;;4.88;2.13;;;;;;;;;;5005830;28;20074;-71
2023/06/20 13:44:22;;;;;;;3.95;1.95;;;;;;;;;;5007119;28;20042;-72
2023/06/20 13:46:48;;;;;;;3.40;2.05;;;;;;;;;;5008318;28;20026;-72
2023/06/20 13:49:14;;;;;;;2.70;1.80;;;;;;;;;;5009722;28;20474;-72
2023/06/20 13:51:39;;;;;;;4.93;2.30;;;;;;;;;;5008286;28;20053;-72
2023/06/20 13:54:06;;;;;;;5.50;2.17;;;;;;;;;;5008677;28;20042;-72
2023/06/20 13:56:32;;;;;;;5.07;2.33;;;;;;;;;;5009226;28;20101;-72
2023/06/20 13:58:57;;;;;;;4.22;1.88;;;;;;;;;;5007054;28;20058;-72
2023/06/20 14:01:22;;;;;;;9.15;3.08;;;;;;;;;;5009149;28;20037;-72
2023/06/20 14:03:49;;;;;;;4.22;2.28;;;;;;;;;;5007064;28;20052;-72
2023/06/20 14:06:15;;;;;;;8.88;2.00;;;;;;;;;;5010033;28;20033;-72
2023/06/20 14:08:42;;;;;;;4.65;2.38;;;;;;;;;;5009251;28;20497;-72
2023/06/20 14:11:07;;;;;;;6.15;2.00;;;;;;;;;;5008136;28;20045;-72
2023/06/20 14:13:33;;;;;;;4.55;2.20;;;;;;;;;;5009495;28;20041;-72
2023/06/20 14:15:58;;;;;;;5.15;2.25;;;;;;;;;;5008510;28;20029;-72
2023/06/20 14:18:23;;;;;;;6.57;2.45;;;;;;;;;;5009848;28;20117;-72
2023/06/20 14:20:49;;;;;;;7.15;2.45;;;;;;;;;;5007676;28;20144;-72
2023/06/20 14:23:14;;;;;;;6.57;2.88;;;;;;;;;;5009302;28;20068;-72
2023/06/20 14:25:39;;;;;;;5.70;2.60;;;;;;;;;;5008636;28;20077;-72
2023/06/20 14:28:05;;;;;;;7.65;2.90;;;;;;;;;;5008882;28;20038;-72
2023/06/20 14:30:30;;;;;;;7.20;3.00;;;;;;;;;;5007291;28;20125;-72
2023/06/20 14:32:55;;;;;;;6.32;2.58;;;;;;;;;;5008470;28;20068;-72
2023/06/20 14:35:21;;;;;;;5.82;3.20;;;;;;;;;;5009680;28;20046;-72
2023/06/20 14:37:46;;;;;;;7.90;3.40;;;;;;;;;;5009555;28;20037;-72
2023/06/20 14:40:11;;;;;;;6.32;3.20;;;;;;;;;;5008555;28;20042;-72